Time;durP1;ratioP1;P1;durP2;ratioP2;P2;SDS_P1;SDS_P2;PMS_P1;PMS_P2;Temp;Humidity;BMP_temperature;BMP_pressure;BME280_temperature;BME280_humidity;BME280_pressure;Samples;Min_cycle;Max_cycle;Signal;HPM_P1;HPM_P2
2023/05/14 07:01:44;;;;;;;6.03;4.97;;;15.00;99.90;18.40;101729.00;;;;6250683;22;20640;-71
2023/05/14 07:04:10;;;;;;;3.43;2.83;;;15.10;99.90;18.50;101730.00;;;;6275724;22;20145;-71
2023/05/14 07:06:39;;;;;;;4.10;3.73;;;15.10;99.90;18.00;101724.00;;;;6251125;22;20149;-71
2023/05/14 07:09:09;;;;;;;6.57;2.83;;;15.20;99.90;17.00;101706.00;;;;6249594;22;20158;-70
2023/05/14 07:11:50;;;;;;;0.30;0.30;;;14.70;99.90;18.00;101716.00;;;;6251639;22;20149;-70
2023/05/14 07:14:20;;;;;;;0.60;0.60;;;14.70;99.90;17.60;101717.00;;;;6254290;22;20228;-70
2023/05/14 07:16:46;;;;;;;3.73;3.50;;;14.80;99.90;17.70;101663.00;;;;6250956;22;20155;-70
2023/05/14 07:19:12;;;;;;;2.37;1.90;;;14.60;99.90;18.60;101717.00;;;;6278340;22;20609;-70
2023/05/14 07:21:41;;;;;;;0.70;0.70;;;15.10;99.90;18.70;101725.00;;;;6250296;22;20172;-69
2023/05/14 07:24:27;;;;;;;13.10;8.70;;;15.30;99.90;18.90;101724.00;;;;6250626;22;20167;-70
2023/05/14 07:27:08;;;;;;;12.37;6.73;;;15.60;99.90;17.80;101726.00;;;;6250788;22;20166;-69
2023/05/14 07:30:14;;;;;;;1.00;1.00;;;15.40;99.90;17.80;101723.00;;;;6250484;22;20159;-70
2023/05/14 07:33:18;;;;;;;1.30;1.27;;;15.20;99.90;18.40;101690.00;;;;6247230;22;20196;-70
2023/05/14 07:36:19;;;;;;;0.40;0.40;;;15.30;99.90;19.40;101743.00;;;;6277944;22;20156;-70
2023/05/14 07:38:50;;;;;;;0.30;0.30;;;15.70;99.90;19.40;101737.00;;;;6250623;22;20178;-69
2023/05/14 07:41:57;;;;;;;0.93;0.93;;;15.90;99.90;18.40;101744.00;;;;6225395;22;20170;-70
2023/05/14 07:44:34;;;;;;;1.70;1.60;;;15.80;99.90;18.00;101727.00;;;;6249313;22;20457;-70
2023/05/14 07:47:12;;;;;;;2.17;1.70;;;15.20;99.90;18.50;101737.00;;;;6250645;22;20161;-70
2023/05/14 07:49:52;;;;;;;1.10;1.10;;;15.20;99.90;17.90;101734.00;;;;6250721;22;20143;-70
2023/05/14 07:53:01;;;;;;;3.63;3.40;;;15.20;99.90;18.80;101727.00;;;;6224949;22;20154;-70
2023/05/14 07:55:58;;;;;;;0.87;0.87;;;15.40;99.90;19.20;101721.00;;;;6222981;22;20173;-70
2023/05/14 07:58:38;;;;;;;9.80;5.83;;;15.70;99.90;19.20;101740.00;;;;6265882;22;20193;-69
2023/05/14 08:01:30;;;;;;;7.73;4.40;;;15.90;99.90;18.10;101731.00;;;;6249369;22;20170;-69
2023/05/14 08:04:22;;;;;;;1.27;1.27;;;15.70;99.90;18.90;101730.00;;;;6195149;23;20166;-69
2023/05/14 08:07:11;;;;;;;4.80;2.83;;;15.50;99.90;18.80;101750.00;;;;6219395;23;20152;-69
2023/05/14 08:09:37;;;;;;;0.27;0.27;;;15.60;99.90;18.80;101736.00;;;;6220522;23;20499;-69
2023/05/14 08:12:44;;;;;;;4.63;2.43;;;15.50;99.90;19.00;101688.00;;;;6193910;23;20162;-70
2023/05/14 08:15:16;;;;;;;2.00;1.93;;;15.60;99.90;19.40;101745.00;;;;6219998;23;20144;-70
2023/05/14 08:17:55;;;;;;;2.20;2.00;;;15.80;99.90;19.10;101700.00;;;;6195564;23;20483;-69
2023/05/14 08:20:30;;;;;;;2.37;2.27;;;15.70;99.90;19.20;101757.00;;;;6247330;23;20140;-70
2023/05/14 08:23:01;;;;;;;6.23;4.03;;;15.90;99.90;18.90;101714.00;;;;6247111;23;20170;-69
2023/05/14 08:25:39;;;;;;;0.13;0.13;;;15.70;99.90;19.00;101738.00;;;;6220397;23;20561;-69
2023/05/14 08:28:06;;;;;;;2.73;1.50;;;15.80;99.90;19.70;101759.00;;;;6220168;23;20144;-70
2023/05/14 08:30:52;;;;;;;4.33;2.90;;;15.90;99.90;20.10;101757.00;;;;6220177;23;20146;-68
2023/05/14 08:33:47;;;;;;;1.43;1.43;;;16.30;99.90;19.10;101739.00;;;;6194987;23;20251;-69
2023/05/14 08:36:38;;;;;;;2.10;1.57;;;16.10;99.90;19.10;101709.00;;;;6220494;23;20134;-69
2023/05/14 08:39:37;;;;;;;3.67;3.33;;;16.20;99.90;18.90;101747.00;;;;6220260;23;20251;-69
2023/05/14 08:42:29;;;;;;;2.30;2.10;;;16.00;99.90;19.10;101682.00;;;;6219872;23;20227;-69
2023/05/14 08:45:45;;;;;;;0.67;0.67;;;16.10;99.90;19.90;101749.00;;;;6219649;23;20157;-69
2023/05/14 08:48:14;;;;;;;3.67;3.33;;;16.20;99.90;20.40;101747.00;;;;6220074;23;20567;-70
2023/05/14 08:51:09;;;;;;;2.53;1.70;;;16.60;99.90;20.20;101747.00;;;;6194598;23;20159;-69
2023/05/14 08:53:58;;;;;;;6.23;5.73;;;16.90;99.90;20.40;101733.00;;;;6245979;23;20145;-70
2023/05/14 08:56:54;;;;;;;4.80;2.53;;;17.10;99.90;20.40;101745.00;;;;6198805;23;20177;-65
2023/05/14 08:59:31;;;;;;;3.47;3.17;;;17.10;99.90;19.80;101736.00;;;;6201533;22;20172;-69
2023/05/14 09:02:26;;;;;;;3.30;3.10;;;17.10;99.90;19.80;101733.00;;;;6275428;22;20183;-69
2023/05/14 09:05:22;;;;;;;0.30;0.30;;;16.80;99.90;21.30;101732.00;;;;6275967;22;20176;-72
2023/05/14 09:08:37;;;;;;;2.23;1.63;;;17.30;99.90;21.20;101740.00;;;;6249520;22;20156;-70
2023/05/14 09:11:52;;;;;;;1.73;1.63;;;17.60;99.90;21.70;101755.00;;;;6254105;22;20158;-70
2023/05/14 09:14:43;;;;;;;0.57;0.57;;;18.10;99.90;21.50;101756.00;;;;6277208;22;20151;-68
2023/05/14 09:17:29;;;;;;;0.10;0.10;;;18.20;99.90;22.60;101777.00;;;;6275520;22;20143;-69
2023/05/14 09:20:03;;;;;;;3.57;3.23;;;18.60;99.90;22.20;101779.00;;;;6250138;22;20226;-69
2023/05/14 09:22:43;;;;;;;1.30;1.27;;;18.80;99.90;22.70;101782.00;;;;6274692;22;20172;-69
2023/05/14 09:25:34;;;;;;;2.30;2.17;;;19.10;99.90;22.70;101790.00;;;;6275622;22;20168;-70
2023/05/14 09:28:14;;;;;;;8.32;7.15;;;19.20;99.90;22.30;101795.00;;;;6275196;22;20152;-69
2023/05/14 09:30:52;;;;;;;2.88;2.65;;;19.00;99.90;22.00;101783.00;;;;6273881;22;20152;-69
2023/05/14 09:33:35;;;;;;;0.75;0.75;;;18.80;99.90;21.60;101774.00;;;;6276907;22;20141;-69
2023/05/14 09:36:10;;;;;;;1.63;1.52;;;18.90;99.90;23.70;101774.00;;;;6249588;22;20196;-69
2023/05/14 09:38:46;;;;;;;0.85;0.85;;;19.60;99.90;24.50;101799.00;;;;6274642;22;20157;-70
2023/05/14 09:41:25;;;;;;;0.10;0.10;;;20.40;99.90;25.20;101809.00;;;;6274872;22;20145;-69
2023/05/14 09:44:03;;;;;;;0.55;0.30;;;21.00;99.90;25.70;101785.00;;;;6274298;22;20224;-70
2023/05/14 09:46:34;;;;;;;2.63;1.98;;;21.40;99.90;26.40;101819.00;;;;6276206;22;20221;-69
2023/05/14 09:49:23;;;;;;;1.27;1.17;;;21.90;99.90;25.00;101841.00;;;;6274857;22;20164;-69
2023/05/14 09:52:03;;;;;;;0.55;0.55;;;21.60;99.90;26.40;101827.00;;;;6276557;22;20152;-69
2023/05/14 09:54:40;;;;;;;2.17;2.08;;;22.00;99.90;25.70;101820.00;;;;6273253;22;20485;-69
2023/05/14 09:57:23;;;;;;;4.70;3.35;;;22.00;99.90;25.30;101837.00;;;;6275040;22;20137;-69
2023/05/14 09:59:59;;;;;;;1.23;1.23;;;22.00;99.90;25.70;101786.00;;;;6274532;22;20676;-69
2023/05/14 10:02:41;;;;;;;2.17;1.85;;;21.80;99.90;24.90;101834.00;;;;6274579;22;20164;-69
2023/05/14 10:05:14;;;;;;;1.23;1.23;;;22.00;99.90;25.60;101835.00;;;;6273510;22;20225;-69
2023/05/14 10:07:55;;;;;;;6.38;4.05;;;21.80;99.90;25.50;101788.00;;;;6249669;22;20219;-69
2023/05/14 10:10:30;;;;;;;0.22;0.22;;;21.80;99.90;25.30;101823.00;;;;6249072;22;20156;-69
2023/05/14 10:13:25;;;;;;;1.35;1.35;;;22.20;99.90;25.60;101828.00;;;;6273693;22;20315;-69
2023/05/14 10:16:32;;;;;;;2.05;1.95;;;21.80;99.90;25.70;101832.00;;;;6249594;22;20734;-70
2023/05/14 10:19:18;;;;;;;0.40;0.35;;;21.90;99.90;24.20;101844.00;;;;6249311;22;20153;-71
2023/05/14 10:34:07;;;;;;;2.35;2.22;;;21.10;99.90;23.30;101766.00;;;;5110869;27;20544;-68
2023/05/14 10:36:41;;;;;;;1.10;1.10;;;21.60;99.90;25.20;101760.00;;;;5090148;28;20677;-69
2023/05/14 10:39:44;;;;;;;2.47;2.08;;;21.50;99.90;25.70;101769.00;;;;5088657;28;20184;-69
2023/05/14 10:42:42;;;;;;;1.35;1.25;;;22.20;99.90;25.40;101773.00;;;;5086330;28;20193;-69
2023/05/14 10:45:56;;;;;;;5.63;2.17;;;22.20;99.90;24.10;101816.00;;;;5084875;28;20188;-69
2023/05/14 10:48:57;;;;;;;0.88;0.75;;;21.90;99.90;24.00;101807.00;;;;5079381;28;20275;-69
2023/05/14 10:52:01;;;;;;;1.13;1.13;;;20.90;99.90;25.50;101762.00;;;;5055136;28;20574;-69
2023/05/14 10:54:52;;;;;;;2.97;2.78;;;21.80;99.90;25.80;101792.00;;;;5059956;28;20283;-69
2023/05/14 10:57:48;;;;;;;3.80;2.28;;;22.30;99.90;25.40;101757.00;;;;5087356;28;20177;-69
2023/05/14 11:01:01;;;;;;;1.88;0.85;;;22.20;99.90;26.70;101778.00;;;;5088942;28;20185;-68
2023/05/14 11:04:06;;;;;;;0.10;0.10;;;22.70;99.90;29.00;101738.00;;;;5084080;28;20213;-69
2023/05/14 11:07:27;;;;;;;2.70;2.60;;;24.10;99.90;28.20;101734.00;;;;5085118;28;20295;-69
2023/05/14 11:10:45;;;;;;;0.55;0.55;;;24.60;99.90;28.90;101725.00;;;;5088621;28;20181;-69
2023/05/14 11:14:00;;;;;;;3.22;2.83;;;24.60;99.90;26.40;101757.00;;;;5072709;28;20608;-68
2023/05/14 11:16:49;;;;;;;2.20;1.80;;;24.90;99.90;24.60;101791.00;;;;5082321;28;20177;-69
2023/05/14 11:19:53;;;;;;;6.70;5.30;;;22.90;99.90;23.80;101807.00;;;;5086780;28;20702;-69
2023/05/14 11:22:47;;;;;;;0.68;0.68;;;22.30;99.90;25.70;101743.00;;;;5088431;28;20234;-68
2023/05/14 11:25:42;;;;;;;0.10;0.10;;;22.40;99.90;27.50;101759.00;;;;5087974;28;20263;-69
2023/05/14 11:28:56;;;;;;;2.30;2.15;;;23.50;99.90;24.20;101811.00;;;;5076633;28;20705;-68
2023/05/14 11:31:43;;;;;;;1.90;1.05;;;22.70;99.90;26.20;101770.00;;;;5095978;28;20217;-68
2023/05/14 11:34:47;;;;;;;2.05;1.80;;;23.00;99.90;25.70;101793.00;;;;5088184;28;20656;-69
2023/05/14 11:37:42;;;;;;;4.00;3.30;;;23.60;99.90;24.30;101805.00;;;;5087887;28;20196;-68
2023/05/14 11:40:34;;;;;;;3.85;3.55;;;22.40;99.90;24.80;101754.00;;;;5082255;28;20174;-68
2023/05/14 11:43:45;;;;;;;0.45;0.38;;;21.80;99.90;25.50;101794.00;;;;5072001;28;20204;-66
2023/05/14 11:46:55;;;;;;;0.70;0.38;;;22.50;99.90;27.60;101770.00;;;;5073866;28;20234;-69
2023/05/14 11:49:44;;;;;;;0.47;0.47;;;23.10;99.90;26.10;101782.00;;;;5074077;28;20193;-69
2023/05/14 11:52:42;;;;;;;1.10;1.05;;;23.10;99.90;27.50;101749.00;;;;5073925;28;20246;-69
2023/05/14 11:55:38;;;;;;;4.15;1.20;;;23.40;99.90;26.20;101776.00;;;;5086341;28;20224;-68
2023/05/14 11:58:27;;;;;;;6.55;3.80;;;22.70;99.90;24.10;101802.00;;;;5037104;28;20255;-69
2023/05/14 12:01:37;;;;;;;2.08;1.30;;;22.10;99.90;24.90;101793.00;;;;5012307;28;20209;-69
2023/05/14 12:04:35;;;;;;;2.53;2.33;;;21.60;99.90;24.80;101788.00;;;;5062456;28;20272;-68
2023/05/14 12:07:43;;;;;;;0.10;0.10;;;21.40;99.90;25.00;101767.00;;;;5073560;28;20209;-69
2023/05/14 12:11:05;;;;;;;0.30;0.30;;;21.20;99.90;24.80;101773.00;;;;5081656;28;20669;-69
2023/05/14 12:14:09;;;;;;;0.22;0.22;;;21.70;99.90;25.70;101765.00;;;;5062524;28;20268;-69
2023/05/14 12:17:14;;;;;;;3.10;2.40;;;21.90;99.90;26.90;101743.00;;;;5073235;28;20243;-69
2023/05/14 12:20:18;;;;;;;0.43;0.43;;;22.70;99.90;27.80;101723.00;;;;5072636;28;20631;-69
2023/05/14 12:23:28;;;;;;;0.10;0.10;;;23.30;99.90;27.30;101732.00;;;;5069429;28;20177;-69
2023/05/14 12:26:33;;;;;;;1.13;1.13;;;23.50;99.90;27.40;101726.00;;;;5073419;28;20189;-70
2023/05/14 12:29:36;;;;;;;1.63;1.55;;;23.40;99.90;25.40;101765.00;;;;5073946;28;20193;-70
2023/05/14 12:32:39;;;;;;;1.67;1.58;;;22.40;99.90;25.40;101745.00;;;;5062425;28;20579;-69
2023/05/14 12:35:45;;;;;;;1.58;1.48;;;22.30;99.90;25.50;101761.00;;;;5073350;28;20173;-70
2023/05/14 12:39:18;;;;;;;2.65;2.55;;;21.90;99.90;25.80;101749.00;;;;5073491;28;20181;-70
2023/05/14 12:42:24;;;;;;;3.47;2.78;;;22.10;99.90;24.80;101740.00;;;;5055302;28;20194;-69
2023/05/14 12:45:25;;;;;;;2.83;0.95;;;21.60;99.90;26.30;101727.00;;;;5067477;28;20244;-69
2023/05/14 12:48:26;;;;;;;2.15;1.35;;;21.90;99.90;26.10;101729.00;;;;5073300;28;20174;-69
2023/05/14 12:51:29;;;;;;;1.23;0.98;;;22.10;99.90;26.00;101745.00;;;;5089937;28;20197;-69
2023/05/14 12:54:48;;;;;;;1.40;1.38;;;22.30;99.90;25.10;101736.00;;;;5074524;28;20192;-69
2023/05/14 12:57:49;;;;;;;0.10;0.10;;;21.80;99.90;25.30;101744.00;;;;5073340;28;20189;-69
2023/05/14 13:00:50;;;;;;;1.80;1.65;;;21.70;99.90;25.80;101728.00;;;;5073096;28;20185;-69
2023/05/14 13:04:02;;;;;;;5.20;4.32;;;21.80;99.90;25.40;101717.00;;;;5073626;28;20534;-69
2023/05/14 13:07:08;;;;;;;2.10;1.48;;;22.00;99.90;25.90;101723.00;;;;5072766;28;20235;-69
2023/05/14 13:10:07;;;;;;;1.15;1.13;;;22.10;99.90;26.70;101699.00;;;;5089768;28;20180;-69
2023/05/14 13:13:10;;;;;;;1.60;1.50;;;22.50;99.90;25.80;101712.00;;;;5072042;28;20216;-69
2023/05/14 13:16:15;;;;;;;1.85;1.00;;;22.20;99.90;26.30;101713.00;;;;5073059;28;20244;-69
2023/05/14 13:19:21;;;;;;;0.10;0.10;;;22.50;99.90;27.30;101696.00;;;;5073232;28;20192;-69
2023/05/14 13:22:24;;;;;;;0.52;0.52;;;22.80;99.90;25.10;101708.00;;;;5072512;28;20610;-69
2023/05/14 13:25:08;;;;;;;1.40;1.40;;;22.90;99.90;26.10;101714.00;;;;5073750;28;20177;-69
2023/05/14 13:28:11;;;;;;;2.28;2.17;;;22.50;99.90;25.90;101715.00;;;;5070160;28;20184;-69
2023/05/14 13:31:04;;;;;;;0.30;0.30;;;22.40;99.90;27.20;101693.00;;;;5072774;28;20181;-69
2023/05/14 13:34:28;;;;;;;0.30;0.30;;;22.80;99.90;26.40;101689.00;;;;5073177;28;20192;-69
2023/05/14 13:37:34;;;;;;;1.05;1.05;;;23.10;99.90;26.70;101682.00;;;;5072446;28;20197;-69
2023/05/14 13:40:20;;;;;;;0.70;0.70;;;23.00;99.90;26.50;101652.00;;;;5067275;28;20271;-69
2023/05/14 13:43:38;;;;;;;0.25;0.25;;;22.90;99.90;27.20;101676.00;;;;5071138;28;20189;-69
2023/05/14 13:46:47;;;;;;;0.28;0.28;;;23.10;99.90;25.20;101695.00;;;;5072189;28;20664;-69
2023/05/14 13:49:50;;;;;;;0.25;0.25;;;22.90;99.90;25.60;101691.00;;;;5072010;28;20239;-69
2023/05/14 13:53:09;;;;;;;0.88;0.88;;;22.40;99.90;26.10;101708.00;;;;5072322;28;20209;-69
2023/05/14 13:56:05;;;;;;;1.63;1.52;;;22.40;99.90;26.20;101692.00;;;;5065045;28;20181;-69
2023/05/14 13:59:11;;;;;;;1.55;1.30;;;22.30;99.90;26.50;101695.00;;;;5073505;28;20189;-69
2023/05/14 14:01:57;;;;;;;1.45;1.35;;;22.40;99.90;26.60;101688.00;;;;5067035;28;20201;-69
2023/05/14 14:05:08;;;;;;;0.30;0.30;;;22.60;99.90;26.10;101701.00;;;;5073001;28;20595;-69
2023/05/14 14:08:14;;;;;;;0.32;0.32;;;22.50;99.90;25.60;101701.00;;;;5071471;28;20239;-69
2023/05/14 14:11:18;;;;;;;1.30;0.98;;;22.50;99.90;26.20;101690.00;;;;5070535;28;20269;-69
2023/05/14 14:14:23;;;;;;;1.83;1.65;;;22.20;99.90;25.30;101699.00;;;;5088507;28;20189;-69
2023/05/14 14:17:45;;;;;;;0.63;0.63;;;22.20;99.90;25.40;101697.00;;;;5054215;28;20308;-70
2023/05/14 14:21:03;;;;;;;0.20;0.20;;;21.80;99.90;24.90;101720.00;;;;5069196;28;20552;-69
2023/05/14 14:24:07;;;;;;;0.63;0.60;;;21.50;99.90;24.40;101710.00;;;;5071744;28;20177;-69
2023/05/14 14:27:13;;;;;;;0.63;0.63;;;21.00;99.90;24.60;101706.00;;;;5066684;28;20197;-69
2023/05/14 14:30:24;;;;;;;0.38;0.38;;;21.00;99.90;24.80;101709.00;;;;5065795;28;20324;-69
2023/05/14 14:33:16;;;;;;;4.43;2.67;;;21.20;99.90;24.90;101689.00;;;;5071244;28;20209;-69
2023/05/14 14:36:19;;;;;;;1.73;1.63;;;21.20;99.90;24.70;101703.00;;;;5071290;28;20189;-69
2023/05/14 14:39:12;;;;;;;0.17;0.17;;;21.10;99.90;24.40;101694.00;;;;5071068;28;20520;-69
2023/05/14 14:42:16;;;;;;;1.20;0.98;;;21.00;99.90;23.30;101700.00;;;;5073134;28;20197;-69
2023/05/14 14:45:06;;;;;;;3.08;2.83;;;20.50;99.90;24.30;101691.00;;;;5060311;28;20589;-69
2023/05/14 14:48:22;;;;;;;3.38;1.65;;;20.60;99.90;24.30;101682.00;;;;5071707;28;20181;-69
2023/05/14 14:51:29;;;;;;;0.95;0.70;;;20.60;99.90;23.90;101683.00;;;;5069081;28;20269;-69
2023/05/14 14:54:17;;;;;;;0.47;0.47;;;20.40;99.90;23.80;101672.00;;;;5071727;28;20257;-69
2023/05/14 14:57:29;;;;;;;0.50;0.50;;;20.30;99.90;24.50;101671.00;;;;5071528;28;20203;-69
2023/05/14 15:00:37;;;;;;;1.17;1.10;;;20.50;99.90;22.80;101625.00;;;;5070932;28;20675;-69
2023/05/14 15:04:01;;;;;;;0.80;0.80;;;20.00;99.90;23.20;101659.00;;;;5064954;28;20325;-68
2023/05/14 15:06:54;;;;;;;0.52;0.30;;;19.70;99.90;23.50;101665.00;;;;5088120;28;20191;-69
2023/05/14 15:10:03;;;;;;;1.45;0.40;;;19.80;99.90;23.70;101647.00;;;;5072593;28;20185;-69
2023/05/14 15:13:05;;;;;;;0.70;0.70;;;19.80;99.90;23.80;101655.00;;;;5071235;28;20207;-69
2023/05/14 15:16:26;;;;;;;0.63;0.63;;;20.00;99.90;23.50;101645.00;;;;5071124;28;20238;-69
2023/05/14 15:19:35;;;;;;;0.95;0.95;;;19.80;99.90;23.30;101650.00;;;;5066325;28;20760;-69
2023/05/14 15:22:28;;;;;;;1.30;1.20;;;19.70;99.90;23.10;101644.00;;;;5066165;28;20185;-69
2023/05/14 15:25:37;;;;;;;0.20;0.20;;;19.70;99.90;22.70;101657.00;;;;5076233;28;20258;-69
2023/05/14 15:28:59;;;;;;;0.15;0.15;;;19.60;99.90;22.90;101662.00;;;;5063180;28;20553;-69
2023/05/14 15:32:05;;;;;;;0.25;0.25;;;19.60;99.90;23.20;101660.00;;;;5071457;28;20222;-69
2023/05/14 15:35:16;;;;;;;1.00;1.00;;;19.50;99.90;23.40;101666.00;;;;5074481;28;20200;-69
2023/05/14 15:38:17;;;;;;;0.85;0.85;;;19.80;99.90;23.60;101653.00;;;;5074604;28;20230;-69
2023/05/14 15:41:21;;;;;;;1.05;1.05;;;19.80;99.90;22.70;101667.00;;;;5072411;28;20190;-69
2023/05/14 15:44:27;;;;;;;2.97;1.95;;;19.40;99.90;21.50;101680.00;;;;5075348;28;20692;-69
2023/05/14 15:47:31;;;;;;;0.82;0.82;;;18.90;99.90;22.90;101665.00;;;;5039714;28;20277;-69
2023/05/14 15:50:52;;;;;;;2.20;2.00;;;19.00;99.90;20.50;101668.00;;;;5074768;28;20182;-69
2023/05/14 15:53:55;;;;;;;3.17;1.97;;;18.50;99.90;20.80;101630.00;;;;5077596;28;20212;-69
2023/05/14 15:56:56;;;;;;;2.90;2.53;;;18.10;99.90;20.50;101604.00;;;;5074096;28;20190;-69
2023/05/14 16:00:00;;;;;;;0.83;0.83;;;17.90;99.90;21.90;101613.00;;;;5057507;28;20224;-69
2023/05/14 16:02:53;;;;;;;0.87;0.87;;;18.10;99.90;22.20;101601.00;;;;5067210;28;20200;-69
2023/05/14 16:05:41;;;;;;;0.97;0.97;;;18.50;99.90;21.40;101567.00;;;;5069652;28;20192;-69
2023/05/14 16:08:12;;;;;;;0.77;0.73;;;18.50;99.90;22.40;101598.00;;;;5072488;28;20179;-68
2023/05/14 16:11:06;;;;;;;3.23;1.77;;;18.60;99.90;21.50;101612.00;;;;5087937;28;20496;-67
2023/05/14 16:13:34;;;;;;;1.53;1.43;;;18.40;99.90;20.90;101587.00;;;;5090967;28;20194;-68
2023/05/14 16:16:00;;;;;;;4.83;3.23;;;18.10;99.90;21.40;101592.00;;;;5074020;28;20643;-68
2023/05/14 16:18:49;;;;;;;2.37;2.20;;;18.10;99.90;21.20;101599.00;;;;5072588;28;20194;-69
2023/05/14 16:21:42;;;;;;;0.10;0.10;;;18.10;99.90;21.90;101587.00;;;;5064350;28;20203;-67
2023/05/14 16:24:36;;;;;;;0.80;0.80;;;18.20;99.90;21.70;101621.00;;;;5068012;28;20228;-67
2023/05/14 16:28:00;;;;;;;2.80;2.60;;;18.40;99.90;21.60;101621.00;;;;5073385;28;20186;-69
2023/05/14 16:30:41;;;;;;;0.20;0.20;;;18.30;99.90;21.60;101579.00;;;;4973657;28;20213;-69
2023/05/14 16:33:24;;;;;;;1.47;1.37;;;18.00;99.90;21.40;101583.00;;;;4973578;28;20218;-69
2023/05/14 16:36:02;;;;;;;0.63;0.63;;;18.00;99.90;21.90;101596.00;;;;4976739;28;20268;-69
2023/05/14 16:38:40;;;;;;;0.50;0.50;;;18.10;99.90;21.80;101589.00;;;;4976612;28;20317;-69
2023/05/14 16:41:35;;;;;;;3.40;3.13;;;18.20;99.90;20.90;101559.00;;;;4992674;28;20199;-69
2023/05/14 16:44:06;;;;;;;0.37;0.37;;;17.90;99.90;21.30;101542.00;;;;4938012;29;20218;-70
2023/05/14 16:47:04;;;;;;;1.70;1.27;;;17.90;99.90;21.60;101583.00;;;;4952717;29;20650;-69
2023/05/14 16:49:33;;;;;;;3.70;1.43;;;18.00;99.90;21.10;101544.00;;;;4969604;28;20207;-69
2023/05/14 16:52:34;;;;;;;5.27;2.73;;;17.80;99.90;20.60;101578.00;;;;4977175;28;20292;-69
2023/05/14 16:55:29;;;;;;;0.63;0.57;;;17.60;99.90;20.60;101593.00;;;;5065356;28;20580;-69
2023/05/14 16:58:27;;;;;;;0.20;0.20;;;17.70;99.90;21.20;101522.00;;;;5060252;28;20613;-69
2023/05/14 17:00:53;;;;;;;1.73;1.17;;;17.60;99.90;21.70;101577.00;;;;5049214;28;20197;-69
2023/05/14 17:03:39;;;;;;;0.57;0.57;;;17.80;99.90;22.10;101590.00;;;;5078729;28;20231;-69
2023/05/14 17:06:44;;;;;;;1.33;1.33;;;18.00;99.90;21.20;101595.00;;;;5071258;28;20639;-69
2023/05/14 17:09:48;;;;;;;0.30;0.30;;;17.80;99.90;20.90;101567.00;;;;5074962;28;20198;-69
2023/05/14 17:13:10;;;;;;;3.70;2.53;;;17.50;99.90;20.60;101539.00;;;;5081092;28;20219;-69
2023/05/14 17:15:40;;;;;;;1.57;1.47;;;17.40;99.90;20.40;101556.00;;;;5072571;28;20186;-69
2023/05/14 17:18:29;;;;;;;0.27;0.27;;;17.20;99.90;20.60;101546.00;;;;5089081;28;20518;-69
2023/05/14 17:20:55;;;;;;;0.40;0.40;;;17.30;99.90;20.80;101557.00;;;;5073696;28;20213;-69
2023/05/14 17:23:21;;;;;;;0.77;0.47;;;17.30;99.90;20.50;101551.00;;;;5073030;28;20187;-69
2023/05/14 17:26:16;;;;;;;1.00;0.93;;;17.30;99.90;20.80;101559.00;;;;5071310;28;20592;-69
2023/05/14 17:28:42;;;;;;;0.50;0.50;;;17.30;99.90;20.60;101567.00;;;;5063552;28;20254;-69
2023/05/14 17:31:08;;;;;;;1.77;1.50;;;17.10;99.90;20.90;101521.00;;;;5072952;28;20652;-69
2023/05/14 17:33:54;;;;;;;2.30;2.20;;;17.10;99.90;20.90;101532.00;;;;5072060;28;20328;-69
2023/05/14 17:36:27;;;;;;;0.10;0.10;;;17.20;99.90;20.20;101566.00;;;;5065062;28;20185;-69
2023/05/14 17:38:53;;;;;;;0.63;0.63;;;17.00;99.90;20.30;101570.00;;;;5068464;28;20184;-69
2023/05/14 17:41:36;;;;;;;1.20;1.10;;;17.00;99.90;19.50;101572.00;;;;5071876;28;20196;-69
2023/05/14 17:44:22;;;;;;;0.80;0.80;;;16.90;99.90;19.70;101566.00;;;;5069885;28;20181;-69
2023/05/14 17:46:50;;;;;;;2.57;1.17;;;16.80;99.90;19.80;101540.00;;;;5073411;28;20591;-69
2023/05/14 17:49:34;;;;;;;1.00;0.73;;;16.60;99.90;19.60;101538.00;;;;5072369;28;20193;-69
2023/05/14 17:52:47;;;;;;;0.10;0.10;;;16.60;99.90;20.20;101549.00;;;;5072321;28;20210;-69
2023/05/14 17:55:49;;;;;;;1.10;0.97;;;16.70;99.90;20.30;101551.00;;;;5072141;28;20197;-69
2023/05/14 17:58:49;;;;;;;1.30;1.27;;;16.90;99.90;19.70;101528.00;;;;5070124;28;20650;-69
2023/05/14 18:01:38;;;;;;;0.20;0.20;;;16.50;99.90;19.90;101546.00;;;;5068840;28;20196;-69
2023/05/14 18:04:39;;;;;;;0.73;0.70;;;16.60;99.90;19.80;101493.00;;;;5072944;28;20180;-69
2023/05/14 18:07:05;;;;;;;0.43;0.43;;;16.50;99.90;20.10;101545.00;;;;5066908;28;20189;-69
2023/05/14 18:10:28;;;;;;;1.40;1.33;;;16.60;99.90;20.00;101557.00;;;;5064864;28;20188;-69
2023/05/14 18:13:41;;;;;;;0.40;0.40;;;16.70;99.90;19.70;101544.00;;;;5071171;28;20236;-69
2023/05/14 18:16:44;;;;;;;2.83;1.87;;;16.60;99.90;19.50;101538.00;;;;5088620;28;20199;-69
2023/05/14 18:19:30;;;;;;;0.67;0.53;;;16.30;99.90;19.20;101498.00;;;;5066075;28;20278;-69
2023/05/14 18:22:23;;;;;;;0.40;0.40;;;16.30;99.90;19.80;101498.00;;;;5070498;28;20230;-69
2023/05/14 18:24:49;;;;;;;0.13;0.13;;;16.40;99.90;20.40;101502.00;;;;5068135;28;20192;-69
2023/05/14 18:27:24;;;;;;;2.27;2.17;;;16.60;99.90;19.40;101540.00;;;;5069452;28;20184;-69
2023/05/14 18:29:58;;;;;;;0.50;0.30;;;16.40;99.90;19.70;101547.00;;;;5085465;28;20230;-69
2023/05/14 18:32:24;;;;;;;0.83;0.83;;;16.30;99.90;19.30;101544.00;;;;5071167;28;20300;-69
2023/05/14 18:35:11;;;;;;;0.20;0.20;;;16.30;99.90;19.10;101531.00;;;;5058780;28;20287;-69
2023/05/14 18:38:25;;;;;;;0.20;0.20;;;16.10;99.90;19.30;101534.00;;;;5066170;28;20642;-69
2023/05/14 18:41:34;;;;;;;0.30;0.30;;;16.10;99.90;19.70;101531.00;;;;5071414;28;20175;-69
2023/05/14 18:44:24;;;;;;;0.10;0.10;;;16.20;99.90;19.30;101543.00;;;;5072569;28;20247;-69
2023/05/14 18:47:31;;;;;;;0.63;0.63;;;16.10;99.90;19.30;101544.00;;;;5088472;28;20192;-69
2023/05/14 18:50:35;;;;;;;0.70;0.70;;;16.10;99.90;19.20;101546.00;;;;5060262;28;20278;-69
2023/05/14 18:53:01;;;;;;;3.20;1.40;;;15.90;99.90;18.70;101548.00;;;;5056225;28;20256;-69
2023/05/14 18:59:42;;;;;;;1.23;1.23;;;15.60;99.90;18.40;101542.00;;;;5075971;28;20201;-68
2023/05/14 19:02:16;;;;;;;0.20;0.20;;;15.30;99.90;18.90;101542.00;;;;5044604;28;20206;-69
2023/05/14 19:05:11;;;;;;;0.30;0.30;;;15.30;99.90;18.90;101550.00;;;;5076259;28;20219;-69
2023/05/14 19:07:51;;;;;;;0.20;0.20;;;15.50;99.90;18.80;101549.00;;;;5026831;28;20263;-69
2023/05/14 19:10:30;;;;;;;1.70;1.60;;;15.30;99.90;18.60;101499.00;;;;5017475;28;20265;-69
2023/05/14 19:13:16;;;;;;;0.20;0.20;;;15.40;99.90;18.30;101529.00;;;;5097796;28;20217;-69
2023/05/14 19:15:51;;;;;;;0.77;0.77;;;15.30;99.90;18.40;101534.00;;;;5091965;28;20213;-68
2023/05/14 19:18:42;;;;;;;0.83;0.83;;;15.00;99.90;18.70;101539.00;;;;5071545;28;20285;-69
2023/05/14 19:21:38;;;;;;;0.70;0.70;;;15.10;99.90;18.10;101483.00;;;;5079777;28;20235;-69
2023/05/14 19:24:10;;;;;;;1.73;1.63;;;15.00;99.90;18.20;101536.00;;;;5079625;28;20235;-69
2023/05/14 19:26:59;;;;;;;0.20;0.20;;;14.90;99.90;18.30;101544.00;;;;5063382;28;20190;-69
2023/05/14 19:29:32;;;;;;;2.20;1.70;;;15.00;99.90;17.50;101545.00;;;;5074540;28;20182;-69
2023/05/14 19:32:01;;;;;;;0.30;0.30;;;14.80;99.90;17.90;101545.00;;;;5074201;28;20296;-69
2023/05/14 19:34:29;;;;;;;4.80;2.00;;;14.60;99.90;18.70;101549.00;;;;5074628;28;20544;-68
2023/05/14 19:37:02;;;;;;;1.07;0.73;;;14.80;99.90;18.30;101512.00;;;;5073975;28;20221;-69
2023/05/14 19:39:43;;;;;;;3.03;1.80;;;14.80;99.90;18.20;101548.00;;;;5069240;28;20209;-69
2023/05/14 19:42:11;;;;;;;3.00;1.33;;;14.80;99.90;17.80;101532.00;;;;5071136;28;20189;-69
2023/05/14 19:45:13;;;;;;;1.30;0.70;;;14.70;99.90;18.30;101538.00;;;;5057905;28;20188;-68
2023/05/14 19:47:53;;;;;;;0.30;0.30;;;14.80;99.90;17.50;101505.00;;;;5017259;28;20259;-69
2023/05/14 19:51:21;;;;;;;0.63;0.63;;;14.60;99.90;18.20;101562.00;;;;5016333;28;20189;-69
2023/05/14 19:57:47;;;;;;;0.20;0.20;;;14.50;99.90;18.50;101561.00;;;;4946480;28;20291;-69
2023/05/14 20:00:43;;;;;;;0.20;0.20;;;14.70;99.90;18.10;101555.00;;;;4974061;28;20199;-68